Time;durP1;ratioP1;P1;durP2;ratioP2;P2;SDS_P1;SDS_P2;PMS_P1;PMS_P2;Temp;Humidity;BMP_temperature;BMP_pressure;BME280_temperature;BME280_humidity;BME280_pressure;Samples;Min_cycle;Max_cycle;Signal;HPM_P1;HPM_P2
2023/10/04 00:00:36;;;;;;;1.13;0.50;;;15.70;99.90;;;;;;5010665;28;20227;-59
2023/10/04 00:03:04;;;;;;;0.50;0.50;;;15.70;99.90;;;;;;5000434;28;20670;-59
2023/10/04 00:05:34;;;;;;;1.80;0.60;;;15.70;99.90;;;;;;5011761;28;20203;-58
2023/10/04 00:08:01;;;;;;;0.57;0.50;;;15.70;99.90;;;;;;5010814;28;20219;-58
2023/10/04 00:10:28;;;;;;;0.60;0.60;;;15.70;99.90;;;;;;5001939;28;20230;-59
2023/10/04 00:12:55;;;;;;;0.43;0.43;;;15.70;99.90;;;;;;4993920;28;20215;-58
2023/10/04 00:15:25;;;;;;;1.90;0.90;;;15.60;99.90;;;;;;5002475;28;20265;-59
2023/10/04 00:17:53;;;;;;;0.50;0.50;;;15.50;99.90;;;;;;4992943;28;20596;-59
2023/10/04 00:20:22;;;;;;;0.70;0.70;;;15.40;99.90;;;;;;4992479;28;20228;-59
2023/10/04 00:22:50;;;;;;;1.73;0.77;;;15.40;99.90;;;;;;4992106;28;20300;-59
2023/10/04 00:25:20;;;;;;;1.23;0.40;;;15.40;99.90;;;;;;5007616;28;20245;-58
2023/10/04 00:27:48;;;;;;;0.50;0.50;;;15.40;99.90;;;;;;4997097;28;20207;-59
2023/10/04 00:30:17;;;;;;;1.07;0.90;;;15.40;99.90;;;;;;4995537;28;20224;-59
2023/10/04 00:32:46;;;;;;;2.20;1.13;;;15.30;99.90;;;;;;4992114;28;20208;-58
2023/10/04 00:35:15;;;;;;;0.97;0.80;;;15.30;99.90;;;;;;4992368;28;20214;-59
2023/10/04 00:37:45;;;;;;;0.70;0.70;;;15.20;99.90;;;;;;4992166;28;20215;-58
2023/10/04 00:40:21;;;;;;;2.00;1.03;;;15.20;99.90;;;;;;5002446;28;20215;-58
2023/10/04 00:42:49;;;;;;;1.73;1.63;;;15.10;99.90;;;;;;5000131;28;20203;-58
2023/10/04 00:45:17;;;;;;;1.60;0.73;;;15.10;99.90;;;;;;5005738;28;20207;-58
2023/10/04 00:47:47;;;;;;;1.07;0.93;;;15.00;99.90;;;;;;5004788;28;20199;-59
2023/10/04 00:50:20;;;;;;;1.23;0.90;;;15.00;99.90;;;;;;5011067;28;20743;-59
2023/10/04 00:52:52;;;;;;;1.73;0.70;;;14.90;99.90;;;;;;5000125;28;20219;-59
2023/10/04 00:55:22;;;;;;;1.23;1.13;;;15.00;99.90;;;;;;4992651;28;20204;-58
2023/10/04 00:57:52;;;;;;;0.60;0.60;;;14.90;99.90;;;;;;4999385;28;20333;-59
2023/10/04 01:00:19;;;;;;;1.37;0.87;;;14.90;99.90;;;;;;5002998;28;20212;-59
2023/10/04 01:02:48;;;;;;;1.33;1.00;;;14.90;99.90;;;;;;4992702;28;20665;-59
2023/10/04 01:05:16;;;;;;;0.60;0.50;;;14.90;99.90;;;;;;5000228;28;20200;-58
2023/10/04 01:07:44;;;;;;;0.90;0.70;;;14.90;99.90;;;;;;5011866;28;20207;-58
2023/10/04 01:10:15;;;;;;;0.90;0.83;;;14.90;99.90;;;;;;5011705;28;20309;-59
2023/10/04 01:12:44;;;;;;;1.40;1.30;;;14.90;99.90;;;;;;5011583;28;20269;-59
2023/10/04 01:17:56;;;;;;;1.00;0.90;;;14.90;99.90;;;;;;5009178;28;20233;-59
2023/10/04 01:20:27;;;;;;;0.80;0.80;;;14.90;99.90;;;;;;4994045;28;20224;-59
2023/10/04 01:23:00;;;;;;;1.03;0.70;;;14.80;99.90;;;;;;4991764;28;20541;-58
2023/10/04 01:25:29;;;;;;;1.17;1.00;;;14.80;99.90;;;;;;4992156;28;20684;-59
2023/10/04 01:27:56;;;;;;;0.80;0.80;;;14.80;99.90;;;;;;4999111;28;20265;-59
2023/10/04 01:30:23;;;;;;;1.00;0.93;;;14.90;99.90;;;;;;5002038;28;20227;-58
2023/10/04 01:32:51;;;;;;;1.70;1.10;;;14.90;99.90;;;;;;5011154;28;20278;-58
2023/10/04 01:35:23;;;;;;;1.97;1.20;;;14.80;99.90;;;;;;4994723;28;20206;-58
2023/10/04 01:37:51;;;;;;;1.80;1.40;;;14.90;99.90;;;;;;4991914;28;20262;-58
2023/10/04 01:40:22;;;;;;;1.03;0.90;;;14.90;99.90;;;;;;4997598;28;20311;-59
2023/10/04 01:42:49;;;;;;;2.30;0.90;;;14.90;99.90;;;;;;4998382;28;20192;-59
2023/10/04 01:45:18;;;;;;;1.37;1.27;;;14.90;99.90;;;;;;4992031;28;20506;-59
2023/10/04 01:47:46;;;;;;;3.27;0.70;;;14.90;99.90;;;;;;4996206;28;20199;-58
2023/10/04 01:50:13;;;;;;;1.00;0.90;;;14.90;99.90;;;;;;5010241;28;20601;-59
2023/10/04 01:52:40;;;;;;;3.13;1.20;;;14.90;99.90;;;;;;4998760;28;20206;-59
2023/10/04 01:55:10;;;;;;;1.13;1.03;;;14.80;99.90;;;;;;4991370;28;20200;-59
2023/10/04 01:57:41;;;;;;;0.90;0.80;;;14.70;99.90;;;;;;4990913;28;20266;-58
2023/10/04 02:00:10;;;;;;;1.90;1.23;;;14.60;99.90;;;;;;4991508;28;20224;-58
2023/10/04 02:02:39;;;;;;;0.83;0.80;;;14.50;99.90;;;;;;4998544;28;20295;-58
2023/10/04 02:05:09;;;;;;;0.80;0.80;;;14.40;99.90;;;;;;5005221;28;20203;-58
2023/10/04 02:07:38;;;;;;;0.67;0.63;;;14.30;99.90;;;;;;4999995;28;20199;-58
2023/10/04 02:10:13;;;;;;;0.70;0.70;;;14.30;99.90;;;;;;4991560;28;20326;-58
2023/10/04 02:12:42;;;;;;;1.10;0.80;;;14.30;99.90;;;;;;4991496;28;20243;-58
2023/10/04 02:15:14;;;;;;;0.90;0.90;;;14.30;99.90;;;;;;5000159;28;20206;-59
2023/10/04 02:17:43;;;;;;;1.13;1.00;;;14.30;99.90;;;;;;4991370;28;20240;-59
2023/10/04 02:20:13;;;;;;;1.23;1.07;;;14.20;99.90;;;;;;4991165;28;20224;-58
2023/10/04 02:22:40;;;;;;;1.00;1.00;;;14.20;99.90;;;;;;5008537;28;20235;-59
2023/10/04 02:25:13;;;;;;;1.13;0.97;;;14.20;99.90;;;;;;4995646;28;20207;-58
2023/10/04 02:27:42;;;;;;;0.70;0.70;;;14.10;99.90;;;;;;5001056;28;20207;-59
2023/10/04 02:30:15;;;;;;;1.83;1.30;;;14.10;99.90;;;;;;4995436;28;20701;-58
2023/10/04 02:32:43;;;;;;;1.57;1.40;;;14.20;99.90;;;;;;4990889;28;20208;-58
2023/10/04 02:35:23;;;;;;;1.37;1.03;;;14.10;99.90;;;;;;4991435;28;20204;-58
2023/10/04 02:37:54;;;;;;;1.30;0.80;;;14.10;99.90;;;;;;4994994;28;20212;-59
2023/10/04 02:40:21;;;;;;;1.23;1.13;;;14.10;99.90;;;;;;5002196;28;20220;-59
2023/10/04 02:42:53;;;;;;;1.17;1.07;;;14.00;99.90;;;;;;5010527;28;20203;-59
2023/10/04 02:45:21;;;;;;;1.87;1.10;;;14.00;99.90;;;;;;5010751;28;20214;-58
2023/10/04 02:47:49;;;;;;;4.40;1.77;;;14.00;99.90;;;;;;5010991;28;20206;-58
2023/10/04 02:50:17;;;;;;;1.63;1.00;;;14.00;99.90;;;;;;5009695;28;20227;-58
2023/10/04 02:52:45;;;;;;;1.00;0.90;;;14.00;99.90;;;;;;5007345;28;20638;-58
2023/10/04 02:55:17;;;;;;;2.60;1.07;;;14.00;99.90;;;;;;4994983;28;20283;-58
2023/10/04 02:57:46;;;;;;;0.70;0.67;;;14.00;99.90;;;;;;4991079;28;20203;-58
2023/10/04 03:00:19;;;;;;;2.10;0.70;;;14.00;99.90;;;;;;4999363;28;20242;-58
2023/10/04 03:02:47;;;;;;;1.77;1.20;;;14.00;99.90;;;;;;4990822;28;20199;-58
2023/10/04 03:05:18;;;;;;;2.30;0.90;;;14.00;99.90;;;;;;5001052;28;20195;-58
2023/10/04 03:07:45;;;;;;;2.63;0.90;;;13.90;99.90;;;;;;4997089;28;20203;-58
2023/10/04 03:10:13;;;;;;;1.70;1.10;;;13.90;99.90;;;;;;5002230;28;20302;-58
2023/10/04 03:12:41;;;;;;;1.40;1.00;;;13.80;99.90;;;;;;4993991;28;20203;-58
2023/10/04 03:15:10;;;;;;;3.07;1.00;;;13.80;99.90;;;;;;4995254;28;20207;-58
2023/10/04 03:17:39;;;;;;;2.93;1.07;;;13.70;99.90;;;;;;5013305;28;20218;-59
2023/10/04 03:20:16;;;;;;;1.10;1.00;;;13.70;99.90;;;;;;5005940;28;20230;-58
2023/10/04 03:22:43;;;;;;;0.67;0.67;;;13.70;99.90;;;;;;5013456;28;20266;-58
2023/10/04 03:25:11;;;;;;;0.97;0.80;;;13.70;99.90;;;;;;5012285;28;20203;-58
2023/10/04 03:27:43;;;;;;;0.77;0.77;;;13.70;99.90;;;;;;5010467;28;20295;-58
2023/10/04 03:30:14;;;;;;;1.57;0.97;;;13.80;99.90;;;;;;5009639;28;20261;-59
2023/10/04 03:32:43;;;;;;;1.20;0.90;;;13.70;99.90;;;;;;5013304;28;20754;-58
2023/10/04 03:35:14;;;;;;;2.37;1.10;;;13.70;99.90;;;;;;5013534;28;20273;-58
2023/10/04 03:37:50;;;;;;;2.07;0.70;;;13.70;99.90;;;;;;5010289;28;20651;-58
2023/10/04 03:40:17;;;;;;;1.57;1.23;;;13.80;99.90;;;;;;5004021;28;20219;-58
2023/10/04 03:42:46;;;;;;;0.97;0.77;;;13.70;99.90;;;;;;5008801;28;20651;-58
2023/10/04 03:45:17;;;;;;;1.23;0.70;;;13.70;99.90;;;;;;4993857;28;20749;-58
2023/10/04 03:47:47;;;;;;;0.77;0.53;;;13.70;99.90;;;;;;4993894;28;20208;-58
2023/10/04 03:50:17;;;;;;;0.60;0.60;;;13.80;99.90;;;;;;4999999;28;20273;-58
2023/10/04 03:52:44;;;;;;;1.00;0.70;;;13.80;99.90;;;;;;5001876;28;20203;-58
2023/10/04 03:55:13;;;;;;;0.83;0.40;;;13.80;99.90;;;;;;4994142;28;20212;-59
2023/10/04 03:57:42;;;;;;;1.80;0.60;;;13.80;99.90;;;;;;5001247;28;20202;-58
2023/10/04 04:00:16;;;;;;;1.40;0.77;;;13.80;99.90;;;;;;5008017;28;20219;-58
2023/10/04 04:02:44;;;;;;;1.23;0.97;;;13.80;99.90;;;;;;4999758;28;20195;-58
2023/10/04 04:05:14;;;;;;;1.83;0.73;;;13.80;99.90;;;;;;5001610;28;20196;-58
2023/10/04 04:07:41;;;;;;;0.97;0.90;;;13.80;99.90;;;;;;4993701;28;20207;-58
2023/10/04 04:10:09;;;;;;;0.80;0.80;;;13.80;99.90;;;;;;4993296;28;20640;-59
2023/10/04 04:12:37;;;;;;;1.30;1.20;;;13.90;99.90;;;;;;4993224;28;20208;-58
2023/10/04 04:15:08;;;;;;;1.40;1.30;;;14.00;99.90;;;;;;5005855;28;20203;-58
2023/10/04 04:17:35;;;;;;;0.90;0.90;;;14.10;99.90;;;;;;5012142;28;20203;-58
2023/10/04 04:20:08;;;;;;;1.00;0.90;;;14.00;99.90;;;;;;4998322;28;20232;-58
2023/10/04 04:22:36;;;;;;;1.67;1.10;;;14.00;99.90;;;;;;4992683;28;20211;-58
2023/10/04 04:25:10;;;;;;;0.90;0.60;;;14.00;99.90;;;;;;4993317;28;20207;-58
2023/10/04 04:27:38;;;;;;;0.50;0.50;;;14.00;99.90;;;;;;4998810;28;20210;-58
2023/10/04 04:30:08;;;;;;;1.97;0.87;;;14.00;99.90;;;;;;5002367;28;20306;-58
2023/10/04 04:32:36;;;;;;;0.60;0.60;;;14.10;99.90;;;;;;5009361;28;20207;-58
2023/10/04 04:35:07;;;;;;;0.73;0.73;;;14.10;99.90;;;;;;5003584;28;20211;-58
2023/10/04 04:37:36;;;;;;;0.63;0.63;;;14.10;99.90;;;;;;4992743;28;20292;-58
2023/10/04 04:40:06;;;;;;;1.37;0.90;;;14.00;99.90;;;;;;5006361;28;20644;-58
2023/10/04 04:42:35;;;;;;;1.07;0.87;;;14.00;99.90;;;;;;5011713;28;20683;-58
2023/10/04 04:45:05;;;;;;;0.73;0.70;;;14.00;99.90;;;;;;5007527;28;20199;-58
2023/10/04 04:47:33;;;;;;;1.27;0.90;;;14.00;99.90;;;;;;5010498;28;20195;-58
2023/10/04 04:50:00;;;;;;;0.93;0.90;;;14.00;99.90;;;;;;5011785;28;20692;-58
2023/10/04 04:52:30;;;;;;;2.27;1.10;;;14.00;99.90;;;;;;5010260;28;20199;-58
2023/10/04 04:54:58;;;;;;;1.90;0.90;;;14.00;99.90;;;;;;5012018;28;20231;-58
2023/10/04 04:57:25;;;;;;;1.50;0.90;;;13.90;99.90;;;;;;5010435;28;20196;-58
2023/10/04 04:59:55;;;;;;;0.83;0.63;;;13.90;99.90;;;;;;4997401;28;20342;-59
2023/10/04 05:02:25;;;;;;;1.50;1.20;;;13.90;99.90;;;;;;5006575;28;20253;-58
2023/10/04 05:04:53;;;;;;;5.30;2.90;;;13.80;99.90;;;;;;4995183;28;20275;-58
2023/10/04 05:07:20;;;;;;;6.37;4.33;;;13.70;99.90;;;;;;5002379;28;20233;-58
2023/10/04 05:09:46;;;;;;;8.70;4.13;;;13.70;99.90;;;;;;4999624;28;20227;-58
2023/10/04 05:12:15;;;;;;;8.07;4.47;;;13.60;99.90;;;;;;5011405;28;20206;-58
2023/10/04 05:14:43;;;;;;;4.97;3.50;;;13.60;99.90;;;;;;5011646;28;20208;-59
2023/10/04 05:17:10;;;;;;;4.30;3.10;;;13.60;99.90;;;;;;5011610;28;20206;-58
2023/10/04 05:19:38;;;;;;;2.43;1.77;;;13.50;99.90;;;;;;5011209;28;20239;-58
2023/10/04 05:22:07;;;;;;;3.80;2.10;;;13.50;99.90;;;;;;5010461;28;20629;-58
2023/10/04 05:24:34;;;;;;;3.27;1.80;;;13.50;99.90;;;;;;5006111;28;20230;-58
2023/10/04 05:27:02;;;;;;;2.20;1.10;;;13.50;99.90;;;;;;5010275;28;20238;-59
2023/10/04 05:29:32;;;;;;;3.50;1.87;;;13.50;99.90;;;;;;5010485;28;20199;-59
2023/10/04 05:31:59;;;;;;;1.93;1.60;;;13.60;99.90;;;;;;5004636;28;20728;-59
2023/10/04 05:34:26;;;;;;;2.37;0.93;;;13.50;99.90;;;;;;5008704;28;20661;-59
2023/10/04 05:36:53;;;;;;;2.77;1.30;;;13.50;99.90;;;;;;5009432;28;20206;-58
2023/10/04 05:39:21;;;;;;;1.40;1.13;;;13.60;99.90;;;;;;5008714;28;20231;-58
2023/10/04 05:41:48;;;;;;;4.17;2.40;;;13.60;99.90;;;;;;5010795;28;20279;-58
2023/10/04 05:44:15;;;;;;;4.23;3.83;;;13.60;99.90;;;;;;5010943;28;20290;-58
2023/10/04 05:46:45;;;;;;;8.87;5.33;;;13.70;99.90;;;;;;5011062;28;20254;-58
2023/10/04 05:49:14;;;;;;;12.80;7.13;;;13.70;99.90;;;;;;5004092;28;20206;-59
2023/10/04 05:51:41;;;;;;;11.43;6.43;;;13.80;99.90;;;;;;5010080;28;20632;-58
2023/10/04 05:54:10;;;;;;;8.60;6.10;;;13.80;99.90;;;;;;5010857;28;20286;-58
2023/10/04 05:56:39;;;;;;;7.30;4.57;;;13.90;99.90;;;;;;5010108;28;20203;-58
2023/10/04 05:59:10;;;;;;;4.80;2.43;;;13.90;99.90;;;;;;5011107;28;20283;-58
2023/10/04 06:01:37;;;;;;;4.00;2.03;;;13.90;99.90;;;;;;5002631;28;20217;-58
2023/10/04 06:04:06;;;;;;;2.07;1.27;;;14.00;99.90;;;;;;5004700;28;20200;-58
2023/10/04 06:06:33;;;;;;;2.37;1.53;;;14.10;99.90;;;;;;5008534;28;20671;-58
2023/10/04 06:09:00;;;;;;;1.93;1.27;;;14.10;99.90;;;;;;5010714;28;20199;-58
2023/10/04 06:11:27;;;;;;;2.27;1.10;;;14.20;99.90;;;;;;5009925;28;20277;-58
2023/10/04 06:13:54;;;;;;;3.80;1.40;;;14.40;99.90;;;;;;5010072;28;20726;-58
2023/10/04 06:16:21;;;;;;;3.87;1.37;;;14.50;99.90;;;;;;5003072;28;20588;-58
2023/10/04 06:18:49;;;;;;;3.03;1.10;;;14.50;99.90;;;;;;5010926;28;20207;-58
2023/10/04 06:21:17;;;;;;;1.87;1.10;;;14.60;99.90;;;;;;5009307;28;20231;-58
2023/10/04 06:23:45;;;;;;;2.20;1.17;;;14.60;99.90;;;;;;4999628;28;20540;-70
2023/10/04 06:26:16;;;;;;;1.30;0.97;;;14.70;99.90;;;;;;5010180;28;20262;-69
2023/10/04 06:28:46;;;;;;;1.43;1.33;;;14.80;99.90;;;;;;4999262;28;20282;-67
2023/10/04 06:31:13;;;;;;;1.43;1.20;;;14.80;99.90;;;;;;5010248;28;20219;-64
2023/10/04 06:33:40;;;;;;;1.93;1.23;;;14.80;99.90;;;;;;5010693;28;20219;-69
2023/10/04 06:36:09;;;;;;;1.50;1.30;;;14.90;99.90;;;;;;5009901;28;20288;-64
2023/10/04 06:38:37;;;;;;;1.83;1.63;;;15.00;99.90;;;;;;4995610;28;20592;-65
2023/10/04 06:41:04;;;;;;;2.93;2.43;;;15.20;99.90;;;;;;5000023;28;20215;-65
2023/10/04 06:43:31;;;;;;;4.27;2.93;;;15.20;99.90;;;;;;5004405;28;20676;-66
2023/10/04 06:45:59;;;;;;;1.83;1.20;;;15.30;99.90;;;;;;5011219;28;20199;-65
2023/10/04 06:48:25;;;;;;;1.17;1.03;;;15.50;99.90;;;;;;5012872;28;20204;-65
2023/10/04 06:50:52;;;;;;;1.63;0.90;;;15.60;99.90;;;;;;5003437;28;20224;-63
2023/10/04 06:53:22;;;;;;;1.73;1.07;;;15.70;99.90;;;;;;5002425;28;20218;-66
2023/10/04 06:55:50;;;;;;;1.37;1.13;;;15.80;99.90;;;;;;5004065;28;20221;-66
2023/10/04 06:58:17;;;;;;;1.00;0.90;;;15.90;99.90;;;;;;5008348;28;20202;-66
2023/10/04 07:00:44;;;;;;;1.90;1.10;;;16.00;99.90;;;;;;5010395;28;20216;-65
2023/10/04 07:03:11;;;;;;;0.83;0.70;;;16.00;99.90;;;;;;4997635;28;20196;-65
2023/10/04 07:05:42;;;;;;;1.37;0.87;;;16.10;99.90;;;;;;5013599;28;20620;-65
2023/10/04 07:08:12;;;;;;;2.83;1.00;;;16.20;99.90;;;;;;5012894;28;20575;-65
2023/10/04 07:10:40;;;;;;;1.53;1.40;;;16.10;99.90;;;;;;5005440;28;20239;-65
2023/10/04 07:13:09;;;;;;;0.97;0.67;;;15.90;99.90;;;;;;5013173;28;20203;-64
2023/10/04 07:15:41;;;;;;;2.23;0.93;;;15.80;99.90;;;;;;5010280;28;20211;-65
2023/10/04 07:18:11;;;;;;;1.20;1.03;;;15.80;99.90;;;;;;5000121;28;20618;-64
2023/10/04 07:20:42;;;;;;;2.70;1.27;;;15.90;99.90;;;;;;5013190;28;20258;-65
2023/10/04 07:23:10;;;;;;;1.37;0.97;;;16.00;99.90;;;;;;5013320;28;20203;-66
2023/10/04 07:25:44;;;;;;;1.13;0.90;;;16.10;99.90;;;;;;5004400;28;20208;-66
2023/10/04 07:28:12;;;;;;;1.37;1.10;;;16.30;99.90;;;;;;4995582;28;20202;-65
2023/10/04 07:30:44;;;;;;;1.43;1.33;;;16.40;99.90;;;;;;5000615;28;20778;-65
2023/10/04 07:33:11;;;;;;;2.27;1.03;;;16.40;99.90;;;;;;4994886;28;20222;-65
2023/10/04 07:35:42;;;;;;;1.47;1.37;;;16.50;99.90;;;;;;5003762;28;20214;-66
2023/10/04 07:38:08;;;;;;;1.77;1.63;;;16.50;99.90;;;;;;5013185;28;20269;-64
2023/10/04 07:40:40;;;;;;;2.87;0.83;;;16.70;99.90;;;;;;5012087;28;20593;-65
2023/10/04 07:43:07;;;;;;;2.50;1.27;;;16.80;99.90;;;;;;4998699;28;20582;-65
2023/10/04 07:45:37;;;;;;;3.97;1.43;;;16.90;99.90;;;;;;4993623;28;20200;-66
2023/10/04 07:48:06;;;;;;;2.27;0.90;;;17.00;99.90;;;;;;4996138;28;20623;-65
2023/10/04 07:50:34;;;;;;;2.20;1.10;;;17.10;99.90;;;;;;5012617;28;20305;-66
2023/10/04 07:53:04;;;;;;;3.67;1.30;;;17.40;99.90;;;;;;5012070;28;20203;-65
2023/10/04 07:55:33;;;;;;;3.10;0.70;;;17.30;99.90;;;;;;5010830;28;20304;-67
2023/10/04 07:58:03;;;;;;;2.07;1.67;;;17.10;99.90;;;;;;5001217;28;20204;-66
2023/10/04 08:00:31;;;;;;;1.23;0.90;;;17.10;99.90;;;;;;4993238;28;20230;-65
2023/10/04 08:02:59;;;;;;;3.23;1.00;;;16.90;99.90;;;;;;4993254;28;20740;-66
2023/10/04 08:05:29;;;;;;;1.43;1.03;;;16.90;99.90;;;;;;4994375;28;20231;-65
2023/10/04 08:07:57;;;;;;;2.87;1.40;;;16.90;99.90;;;;;;5002587;28;20196;-66
2023/10/04 08:10:26;;;;;;;1.80;1.20;;;16.70;99.90;;;;;;5002854;28;20298;-65
2023/10/04 08:12:55;;;;;;;1.10;0.93;;;16.70;99.90;;;;;;5005063;28;20223;-66
2023/10/04 08:15:25;;;;;;;1.37;1.27;;;16.80;99.90;;;;;;5011532;28;20242;-66
2023/10/04 08:17:53;;;;;;;2.00;1.00;;;16.90;99.90;;;;;;4999972;28;20199;-67
2023/10/04 08:20:22;;;;;;;0.83;0.80;;;17.10;99.90;;;;;;4995497;28;20223;-65
2023/10/04 08:22:50;;;;;;;0.60;0.60;;;17.20;99.90;;;;;;5002331;28;20196;-66
2023/10/04 08:25:18;;;;;;;2.60;0.87;;;17.40;99.90;;;;;;5007028;28;20253;-67
2023/10/04 08:27:46;;;;;;;0.70;0.70;;;17.20;99.90;;;;;;5000067;28;20299;-70
2023/10/04 08:30:15;;;;;;;1.10;0.90;;;17.30;99.90;;;;;;5005042;28;20220;-71
2023/10/04 08:32:43;;;;;;;2.70;0.70;;;17.40;99.90;;;;;;5003449;28;20227;-72
2023/10/04 08:35:21;;;;;;;1.70;1.17;;;17.50;99.90;;;;;;5012050;28;20199;-68
2023/10/04 08:37:50;;;;;;;1.03;0.80;;;17.60;99.90;;;;;;5011474;28;20206;-72
2023/10/04 08:40:18;;;;;;;3.53;1.00;;;17.80;99.90;;;;;;5011169;28;20703;-71
2023/10/04 08:42:46;;;;;;;1.30;1.00;;;18.00;99.90;;;;;;5002921;28;20282;-69
2023/10/04 08:45:13;;;;;;;1.43;1.00;;;18.20;99.90;;;;;;5002518;28;20246;-71
2023/10/04 08:47:41;;;;;;;1.43;0.93;;;18.80;99.90;;;;;;4992203;28;20199;-67
2023/10/04 08:50:15;;;;;;;1.07;0.70;;;19.70;99.90;;;;;;4998651;28;20223;-71
2023/10/04 08:52:43;;;;;;;3.67;1.43;;;20.40;99.90;;;;;;5000776;28;20639;-70
2023/10/04 08:55:16;;;;;;;1.60;1.07;;;21.00;99.90;;;;;;5004225;28;20251;-68
2023/10/04 08:57:44;;;;;;;1.23;1.10;;;21.90;99.90;;;;;;5003562;28;20203;-66
2023/10/04 09:00:14;;;;;;;1.67;1.23;;;22.40;99.90;;;;;;5004294;28;20273;-67
2023/10/04 09:02:45;;;;;;;1.53;1.00;;;22.40;99.90;;;;;;5000780;28;20613;-68
2023/10/04 09:05:14;;;;;;;1.10;1.00;;;22.50;99.90;;;;;;5004646;28;20283;-70
2023/10/04 09:07:43;;;;;;;3.97;0.90;;;22.90;99.90;;;;;;5004079;28;20218;-69
2023/10/04 09:10:15;;;;;;;1.03;1.00;;;23.00;99.90;;;;;;5004079;28;20219;-67
2023/10/04 09:12:42;;;;;;;1.20;0.90;;;23.30;99.90;;;;;;5005715;28;20250;-66
2023/10/04 09:15:10;;;;;;;1.50;1.00;;;23.90;99.90;;;;;;4999530;28;20224;-66
2023/10/04 09:17:46;;;;;;;2.80;1.00;;;23.10;99.90;;;;;;5002590;28;20261;-59
2023/10/04 09:20:16;;;;;;;2.80;0.97;;;23.50;99.90;;;;;;5005840;28;20233;-66
2023/10/04 09:22:43;;;;;;;1.13;1.00;;;23.80;99.90;;;;;;5007941;28;20199;-67
2023/10/04 09:25:11;;;;;;;4.57;1.37;;;24.00;99.90;;;;;;5034151;23;20661;-57
2023/10/04 09:27:41;;;;;;;2.13;0.90;;;24.50;99.90;;;;;;5027236;28;20381;-57
2023/10/04 09:30:22;;;;;;;1.27;0.90;;;24.80;99.90;;;;;;5023203;28;20214;-57
2023/10/04 09:32:49;;;;;;;3.93;1.60;;;25.00;99.90;;;;;;5011442;28;20310;-55
2023/10/04 09:35:18;;;;;;;0.80;0.80;;;25.10;99.90;;;;;;5009146;28;20255;-55
2023/10/04 09:37:45;;;;;;;3.27;1.70;;;24.70;99.90;;;;;;4993575;28;20200;-58
2023/10/04 09:40:16;;;;;;;2.93;1.50;;;24.90;99.90;;;;;;5007124;28;20198;-58
2023/10/04 09:42:51;;;;;;;1.10;1.00;;;24.60;99.90;;;;;;5011546;28;20565;-57
2023/10/04 09:45:20;;;;;;;1.30;1.07;;;24.90;99.90;;;;;;5004176;28;20227;-57
2023/10/04 09:47:47;;;;;;;3.30;1.60;;;25.20;99.90;;;;;;4992775;28;20286;-58
2023/10/04 09:50:22;;;;;;;3.90;1.67;;;25.00;99.90;;;;;;5005289;28;20199;-58
2023/10/04 09:52:49;;;;;;;2.57;0.93;;;24.80;99.90;;;;;;5007725;28;20232;-58
2023/10/04 09:55:17;;;;;;;1.00;0.90;;;24.70;99.90;;;;;;5002270;28;20774;-58
2023/10/04 09:57:47;;;;;;;2.20;1.23;;;25.00;99.90;;;;;;5006596;28;20203;-58
2023/10/04 10:00:18;;;;;;;2.07;1.00;;;24.80;99.90;;;;;;4991888;28;20239;-59
2023/10/04 10:02:48;;;;;;;0.70;0.70;;;24.90;99.90;;;;;;4994319;28;20199;-58
2023/10/04 10:05:24;;;;;;;1.27;0.97;;;25.20;99.90;;;;;;5011331;28;20273;-59
2023/10/04 10:07:53;;;;;;;1.20;0.90;;;25.60;99.90;;;;;;5003890;28;20584;-60
2023/10/04 10:10:24;;;;;;;0.87;0.80;;;25.90;99.90;;;;;;4993900;28;20290;-61
2023/10/04 10:12:52;;;;;;;1.60;1.10;;;25.50;99.90;;;;;;4990259;28;20215;-59
2023/10/04 10:15:19;;;;;;;1.73;1.10;;;25.80;99.90;;;;;;4991956;28;20351;-57
2023/10/04 10:17:48;;;;;;;2.37;1.10;;;25.90;99.60;;;;;;4993704;28;20206;-58
2023/10/04 10:20:16;;;;;;;0.93;0.93;;;25.60;99.90;;;;;;4995702;28;20665;-58
2023/10/04 10:23:08;;;;;;;1.50;1.40;;;25.80;99.90;;;;;;4995253;28;20199;-57
2023/10/04 10:25:41;;;;;;;2.37;1.27;;;25.60;99.90;;;;;;4996894;28;20230;-55
2023/10/04 10:28:22;;;;;;;2.50;1.13;;;25.20;99.90;;;;;;5001298;28;20703;-56
2023/10/04 10:30:59;;;;;;;2.60;1.53;;;25.10;99.90;;;;;;5003594;28;20707;-56
2023/10/04 10:33:26;;;;;;;1.27;1.10;;;25.40;99.90;;;;;;4995123;28;20257;-57
2023/10/04 10:35:59;;;;;;;1.87;0.97;;;25.30;99.90;;;;;;4999776;28;20948;-54
2023/10/04 10:38:47;;;;;;;1.03;0.93;;;24.70;99.90;;;;;;4998437;28;20204;-54
2023/10/04 10:42:02;;;;;;;1.23;1.13;;;24.10;99.90;;;;;;4995004;28;20208;-54
2023/10/04 10:44:39;;;;;;;1.23;1.03;;;23.80;99.90;;;;;;4992433;28;20235;-53
2023/10/04 10:47:17;;;;;;;1.90;1.10;;;23.30;99.90;;;;;;4995403;28;20224;-53
2023/10/04 10:49:55;;;;;;;1.83;1.33;;;23.00;99.90;;;;;;4995184;28;20596;-54
2023/10/04 10:52:27;;;;;;;1.43;1.20;;;22.90;99.90;;;;;;4994257;28;20224;-53
2023/10/04 10:54:55;;;;;;;0.80;0.70;;;22.70;99.90;;;;;;5000317;28;20208;-55
2023/10/04 10:57:24;;;;;;;8.63;1.30;;;22.60;99.90;;;;;;5001943;28;20204;-58
2023/10/04 10:59:54;;;;;;;2.50;1.43;;;22.40;99.90;;;;;;4999412;28;20204;-58
2023/10/04 11:02:22;;;;;;;1.37;1.23;;;22.10;99.90;;;;;;5005101;28;20200;-58
2023/10/04 11:04:50;;;;;;;1.37;1.20;;;21.90;99.90;;;;;;5003076;28;20231;-59
2023/10/04 11:07:17;;;;;;;2.67;1.10;;;21.60;99.90;;;;;;5005228;28;20270;-59
2023/10/04 11:09:49;;;;;;;3.47;0.70;;;21.20;99.90;;;;;;5005645;28;20238;-59
2023/10/04 11:12:19;;;;;;;2.67;1.43;;;21.10;99.90;;;;;;5014170;28;20277;-59
2023/10/04 11:14:46;;;;;;;1.17;1.07;;;21.00;99.90;;;;;;5014255;28;20199;-59
2023/10/04 11:17:15;;;;;;;2.60;1.23;;;21.00;99.90;;;;;;5014327;28;20739;-59
2023/10/04 11:19:42;;;;;;;2.93;1.20;;;21.10;99.90;;;;;;5014213;28;20249;-57
2023/10/04 11:22:11;;;;;;;1.53;1.43;;;21.20;99.90;;;;;;5009065;28;20226;-58
2023/10/04 11:24:40;;;;;;;0.73;0.73;;;21.00;99.90;;;;;;5004218;28;20207;-58
2023/10/04 11:27:07;;;;;;;1.30;1.20;;;20.90;99.90;;;;;;4995008;28;20208;-58
2023/10/04 11:29:35;;;;;;;0.80;0.80;;;21.10;99.90;;;;;;4993516;28;20257;-58
2023/10/04 11:32:02;;;;;;;1.50;1.07;;;20.90;99.90;;;;;;4993909;28;20255;-58
2023/10/04 11:34:36;;;;;;;0.83;0.70;;;20.80;99.90;;;;;;4994881;28;20238;-58
2023/10/04 11:37:03;;;;;;;1.70;1.10;;;21.00;99.90;;;;;;4994591;28;20255;-56
2023/10/04 11:39:34;;;;;;;1.67;0.93;;;21.00;99.90;;;;;;5000077;28;20216;-56
2023/10/04 11:42:02;;;;;;;1.33;1.23;;;21.00;99.90;;;;;;5013446;28;20278;-58
2023/10/04 11:44:32;;;;;;;1.30;1.17;;;21.00;99.90;;;;;;5013816;28;20210;-58
2023/10/04 11:47:03;;;;;;;3.80;1.30;;;20.80;99.90;;;;;;5013865;28;20227;-58
2023/10/04 11:49:33;;;;;;;2.73;1.10;;;20.80;99.90;;;;;;5005517;28;20219;-57
2023/10/04 11:52:03;;;;;;;0.77;0.70;;;20.80;99.90;;;;;;5006012;28;20306;-58
2023/10/04 11:54:40;;;;;;;2.97;1.37;;;;;;;;;;4996712;28;20199;-57
2023/10/04 11:57:08;;;;;;;1.10;1.00;;;20.80;99.90;;;;;;4994041;28;20206;-57
2023/10/04 11:59:35;;;;;;;3.63;1.23;;;20.60;99.90;;;;;;4993906;28;20204;-58
2023/10/04 12:02:04;;;;;;;1.43;0.97;;;20.40;99.90;;;;;;4993534;28;20207;-57
2023/10/04 12:04:33;;;;;;;1.53;1.10;;;20.00;99.90;;;;;;4993874;28;20203;-57
2023/10/04 12:07:02;;;;;;;1.30;1.00;;;19.90;99.90;;;;;;5004986;28;20223;-57
2023/10/04 12:09:31;;;;;;;1.33;1.23;;;19.80;99.90;;;;;;5003507;28;20199;-57
2023/10/04 12:11:59;;;;;;;3.33;1.50;;;19.90;99.90;;;;;;5002818;28;20204;-56
2023/10/04 12:14:31;;;;;;;1.50;1.20;;;20.00;99.90;;;;;;5001622;28;20295;-58
2023/10/04 12:17:02;;;;;;;1.90;1.00;;;19.90;99.90;;;;;;4992373;28;20220;-58
2023/10/04 12:19:31;;;;;;;1.00;1.00;;;19.80;99.90;;;;;;4999191;28;20206;-56
2023/10/04 12:22:01;;;;;;;2.53;1.17;;;19.70;99.90;;;;;;4998319;28;20282;-56
2023/10/04 12:24:30;;;;;;;1.07;0.90;;;19.60;99.90;;;;;;5009384;28;20199;-57
2023/10/04 12:26:58;;;;;;;0.80;0.70;;;19.50;99.90;;;;;;5000709;28;20238;-58
2023/10/04 12:29:27;;;;;;;0.87;0.83;;;19.40;99.90;;;;;;4999391;28;20204;-58
2023/10/04 12:31:55;;;;;;;2.53;1.30;;;19.40;99.90;;;;;;5004785;28;20204;-57
2023/10/04 12:34:24;;;;;;;1.43;1.07;;;19.40;99.90;;;;;;5002614;28;20199;-53
2023/10/04 12:36:52;;;;;;;1.33;1.07;;;19.40;99.90;;;;;;5002276;28;20254;-53
2023/10/04 12:39:21;;;;;;;1.83;1.10;;;19.30;99.90;;;;;;4998240;28;20237;-57
2023/10/04 12:41:49;;;;;;;1.60;0.93;;;19.30;99.90;;;;;;4993044;28;20250;-53
2023/10/04 12:44:17;;;;;;;1.40;1.30;;;19.40;99.90;;;;;;5007715;28;20245;-53
2023/10/04 12:46:44;;;;;;;1.73;0.90;;;19.60;99.90;;;;;;5012636;28;20227;-58
2023/10/04 12:49:12;;;;;;;2.20;1.50;;;19.60;99.90;;;;;;5011376;28;20228;-58
2023/10/04 12:51:39;;;;;;;1.17;0.97;;;19.50;99.90;;;;;;4993688;28;20208;-58
2023/10/04 12:54:08;;;;;;;2.37;0.60;;;19.50;99.90;;;;;;4992650;28;20593;-58
2023/10/04 12:56:37;;;;;;;2.20;1.20;;;19.50;99.90;;;;;;4993888;28;20299;-57
2023/10/04 12:59:06;;;;;;;1.27;1.10;;;19.50;99.90;;;;;;4993149;28;20203;-57
2023/10/04 13:01:33;;;;;;;2.30;1.17;;;19.40;99.90;;;;;;4991988;28;20588;-57